createdAt,value
2022-09-26T00:01:13.867Z,5.27
2022-09-26T00:03:44.440Z,7.17
2022-09-26T00:06:12.494Z,4.93
2022-09-26T00:08:39.859Z,7.23
2022-09-26T00:11:08.642Z,4.27
2022-09-26T00:13:38.350Z,4.90
2022-09-26T00:16:05.885Z,4.30
2022-09-26T00:18:33.097Z,7.80
2022-09-26T00:21:18.800Z,5.83
2022-09-26T00:23:45.981Z,4.50
2022-09-26T00:26:14.722Z,5.97
2022-09-26T00:28:41.980Z,4.83
2022-09-26T00:31:15.405Z,7.17
2022-09-26T00:33:42.522Z,5.00
2022-09-26T00:36:09.362Z,6.87
2022-09-26T00:38:36.020Z,8.93
2022-09-26T00:41:03.202Z,4.73
2022-09-26T00:43:34.228Z,4.80
2022-09-26T00:46:23.089Z,3.77
2022-09-26T00:48:58.397Z,5.40
2022-09-26T00:51:25.249Z,7.17
2022-09-26T00:53:53.391Z,7.60
2022-09-26T00:56:34.031Z,4.50
2022-09-26T00:59:09.802Z,5.00
2022-09-26T01:01:37.077Z,5.53
2022-09-26T01:04:06.080Z,5.20
2022-09-26T01:06:32.829Z,5.03
2022-09-26T01:09:03.296Z,5.10
2022-09-26T01:11:31.621Z,6.47
2022-09-26T01:13:59.226Z,4.97
2022-09-26T01:16:25.959Z,4.83
2022-09-26T01:18:52.614Z,4.90
2022-09-26T01:21:37.776Z,5.87
2022-09-26T01:24:37.507Z,5.17
2022-09-26T01:27:18.760Z,3.93
2022-09-26T01:30:15.196Z,6.33
2022-09-26T01:32:51.010Z,7.67
2022-09-26T01:35:51.802Z,4.63
2022-09-26T01:38:40.107Z,3.60
2022-09-26T01:41:25.016Z,4.07
2022-09-26T01:44:06.772Z,3.53
2022-09-26T01:46:46.452Z,6.77
2022-09-26T01:49:36.059Z,6.13
2022-09-26T01:52:02.910Z,6.77
2022-09-26T01:54:37.572Z,5.43
2022-09-26T01:57:09.384Z,5.37
2022-09-26T01:59:41.787Z,5.00
2022-09-26T02:02:15.295Z,6.23
2022-09-26T02:04:46.154Z,8.03
2022-09-26T02:07:19.677Z,8.03
2022-09-26T02:09:53.483Z,6.97
2022-09-26T02:12:27.641Z,4.70
2022-09-26T02:14:58.228Z,4.50
2022-09-26T02:17:33.718Z,6.10
2022-09-26T02:20:10.598Z,11.10
2022-09-26T02:22:38.859Z,6.83
2022-09-26T02:25:06.345Z,5.53
2022-09-26T02:27:33.208Z,4.27
2022-09-26T02:30:00.064Z,6.87
2022-09-26T02:32:31.963Z,5.50
2022-09-26T02:34:59.892Z,5.03
2022-09-26T02:37:28.944Z,8.10
2022-09-26T02:39:56.203Z,6.53
2022-09-26T02:42:36.671Z,7.00
2022-09-26T02:45:30.094Z,7.03
2022-09-26T02:48:16.550Z,7.90
2022-09-26T02:51:14.239Z,6.00
2022-09-26T02:54:15.230Z,6.87
2022-09-26T02:56:51.972Z,6.43
2022-09-26T02:59:35.169Z,7.27
2022-09-26T03:02:08.289Z,5.73
2022-09-26T03:04:49.073Z,6.03
2022-09-26T03:07:24.277Z,7.50
2022-09-26T03:09:52.834Z,7.97
2022-09-26T03:12:20.785Z,6.47
2022-09-26T03:14:49.521Z,10.63
2022-09-26T03:17:18.952Z,11.23
2022-09-26T03:19:50.843Z,7.13
2022-09-26T03:22:17.454Z,12.40
2022-09-26T03:24:45.588Z,10.33
2022-09-26T03:27:14.478Z,13.40
2022-09-26T03:29:41.170Z,7.47
2022-09-26T03:32:07.877Z,6.77
2022-09-26T03:34:34.557Z,9.57
2022-09-26T03:37:01.829Z,7.90
2022-09-26T03:39:28.393Z,5.73
2022-09-26T03:41:56.451Z,6.47
2022-09-26T03:44:24.391Z,8.93
2022-09-26T03:46:51.871Z,8.23
2022-09-26T03:49:18.463Z,7.87
2022-09-26T03:51:45.932Z,10.37
2022-09-26T03:54:13.486Z,6.53
2022-09-26T03:56:40.931Z,7.53
2022-09-26T03:59:08.724Z,8.27
2022-09-26T04:01:35.550Z,8.30
2022-09-26T04:04:02.229Z,9.00
2022-09-26T04:06:28.880Z,9.77
2022-09-26T04:08:56.483Z,6.83
2022-09-26T04:11:25.335Z,8.60
2022-09-26T04:13:53.991Z,6.63
2022-09-26T04:16:23.120Z,9.87
2022-09-26T04:18:50.471Z,8.53
2022-09-26T04:21:17.394Z,8.50
2022-09-26T04:23:44.494Z,7.77
2022-09-26T04:26:17.498Z,11.60
2022-09-26T04:28:49.520Z,7.77
2022-09-26T04:31:16.270Z,9.63
2022-09-26T04:33:42.900Z,7.60
2022-09-26T04:36:12.015Z,16.20
2022-09-26T04:38:39.319Z,6.87
2022-09-26T04:41:08.608Z,11.90
2022-09-26T04:43:36.456Z,13.97
2022-09-26T04:46:11.139Z,10.23
2022-09-26T04:48:38.266Z,6.97
2022-09-26T04:51:09.676Z,9.03
2022-09-26T04:53:37.490Z,19.43
2022-09-26T04:56:05.134Z,8.03
2022-09-26T04:58:32.474Z,8.77
2022-09-26T05:01:10.123Z,13.03
2022-09-26T05:03:37.934Z,11.73
2022-09-26T05:06:09.073Z,12.23
2022-09-26T05:08:41.135Z,10.23
2022-09-26T05:11:09.227Z,16.23
2022-09-26T05:13:37.886Z,9.63
2022-09-26T05:16:06.323Z,13.13
2022-09-26T05:18:33.728Z,18.57
2022-09-26T05:21:01.302Z,8.93
2022-09-26T05:23:46.440Z,11.27
2022-09-26T05:26:22.298Z,11.60
2022-09-26T05:29:07.658Z,12.20
2022-09-26T05:31:37.735Z,12.50
2022-09-26T05:34:06.250Z,9.97
2022-09-26T05:36:33.586Z,11.03
2022-09-26T05:39:00.559Z,14.90
2022-09-26T05:41:29.551Z,14.30
2022-09-26T05:43:56.556Z,11.63
2022-09-26T05:46:23.927Z,13.53
2022-09-26T05:48:50.804Z,11.47
2022-09-26T05:51:21.133Z,14.43
2022-09-26T05:53:49.582Z,12.20
2022-09-26T05:56:19.198Z,15.30
2022-09-26T05:58:46.234Z,16.57
2022-09-26T06:01:15.805Z,19.07
2022-09-26T06:03:44.574Z,17.53
2022-09-26T06:06:16.811Z,18.33
2022-09-26T06:08:44.252Z,19.20
2022-09-26T06:11:13.967Z,14.03
2022-09-26T06:13:45.727Z,20.13
2022-09-26T06:16:18.575Z,20.33
2022-09-26T06:18:47.000Z,11.80
2022-09-26T06:21:16.056Z,24.50
2022-09-26T06:23:42.858Z,15.60
2022-09-26T06:26:12.929Z,18.17
2022-09-26T06:28:40.257Z,19.07
2022-09-26T06:31:18.820Z,20.87
2022-09-26T06:33:53.481Z,25.17
2022-09-26T06:36:20.245Z,18.90
2022-09-26T06:38:46.854Z,24.23
2022-09-26T06:41:16.678Z,18.33
2022-09-26T06:43:47.660Z,18.60
2022-09-26T06:46:15.404Z,14.27
2022-09-26T06:48:42.743Z,18.27
2022-09-26T06:51:09.959Z,18.47
2022-09-26T06:53:36.624Z,19.53
2022-09-26T06:56:08.706Z,13.30
2022-09-26T06:58:35.382Z,16.10
2022-09-26T07:01:03.916Z,14.27
2022-09-26T07:03:30.664Z,12.10
2022-09-26T07:05:58.378Z,16.37
2022-09-26T07:08:49.989Z,11.47
2022-09-26T07:14:05.739Z,10.87
2022-09-26T07:16:32.379Z,13.63
2022-09-26T07:18:59.036Z,12.00
2022-09-26T07:21:25.607Z,8.87
2022-09-26T07:23:56.826Z,7.63
2022-09-26T07:26:23.438Z,6.33
2022-09-26T07:28:54.568Z,8.13
2022-09-26T07:31:23.707Z,7.57
2022-09-26T07:33:50.727Z,8.50
2022-09-26T07:36:18.527Z,8.93
2022-09-26T07:38:48.615Z,11.17
2022-09-26T07:41:16.217Z,6.50
2022-09-26T07:44:30.255Z,8.73
2022-09-26T07:46:48.541Z,6.87
2022-09-26T07:49:33.815Z,9.83
2022-09-26T07:52:00.814Z,6.77
2022-09-26T07:54:27.449Z,9.77
2022-09-26T07:56:54.448Z,7.30
2022-09-26T07:59:22.965Z,8.93
2022-09-26T08:01:49.742Z,10.80
2022-09-26T08:04:16.869Z,11.50
2022-09-26T08:06:44.096Z,7.90
2022-09-26T08:09:10.784Z,9.83
2022-09-26T08:11:37.615Z,8.53
2022-09-26T08:14:04.258Z,8.30
2022-09-26T08:16:30.976Z,5.77
2022-09-26T08:18:58.659Z,10.20
2022-09-26T08:21:25.423Z,7.10
2022-09-26T08:23:53.658Z,6.10
2022-09-26T08:26:24.010Z,11.50
2022-09-26T08:28:51.032Z,3.37
2022-09-26T08:31:18.737Z,6.63
2022-09-26T08:33:45.459Z,5.30
2022-09-26T08:36:15.498Z,5.63
2022-09-26T08:38:42.185Z,5.67
2022-09-26T08:41:50.038Z,5.93
2022-09-26T08:44:31.834Z,5.53
2022-09-26T08:47:04.973Z,3.77
2022-09-26T08:49:48.960Z,5.73
2022-09-26T08:52:36.408Z,4.40
2022-09-26T08:55:12.736Z,7.27
2022-09-26T09:15:23.949Z,8.13
2022-09-26T09:18:13.839Z,8.73
2022-09-26T09:20:58.714Z,8.93
2022-09-26T09:23:31.188Z,5.90
2022-09-26T09:28:58.371Z,5.20
2022-09-26T09:31:31.943Z,7.83
2022-09-26T09:34:02.743Z,5.30
2022-09-26T09:36:39.075Z,11.70
2022-09-26T09:39:07.691Z,6.77
2022-09-26T09:41:44.756Z,11.50
2022-09-26T09:44:32.083Z,6.30
2022-09-26T09:46:59.182Z,11.87
2022-09-26T09:49:26.638Z,9.37
2022-09-26T09:52:01.912Z,5.80
2022-09-26T09:54:31.321Z,9.00
2022-09-26T09:57:12.067Z,5.83
2022-09-26T10:00:32.294Z,15.20
2022-09-26T10:03:19.223Z,21.47
2022-09-26T10:05:53.678Z,12.50
2022-09-26T10:08:40.483Z,7.67
2022-09-26T10:11:52.671Z,8.10
2022-09-26T10:14:29.933Z,9.87
2022-09-26T10:17:11.610Z,5.13
2022-09-26T10:19:40.247Z,6.17
2022-09-26T10:22:15.592Z,5.27
2022-09-26T10:24:45.345Z,7.27
2022-09-26T10:27:22.679Z,7.97
2022-09-26T10:30:00.702Z,6.00
2022-09-26T10:32:29.093Z,5.70
2022-09-26T10:35:07.846Z,7.60
2022-09-26T10:37:37.690Z,9.30
2022-09-26T10:40:41.305Z,5.93
2022-09-26T10:43:22.743Z,3.83
2022-09-26T10:45:55.387Z,3.63
2022-09-26T10:48:55.314Z,7.90
2022-09-26T10:51:28.797Z,3.60
2022-09-26T10:54:05.361Z,11.27
2022-09-26T10:56:38.478Z,4.37
2022-09-26T10:59:09.009Z,5.93
2022-09-26T11:01:43.248Z,7.27
2022-09-26T11:04:41.313Z,4.87
2022-09-26T11:07:10.981Z,6.40
2022-09-26T11:09:41.093Z,12.77
2022-09-26T11:12:30.772Z,4.10
2022-09-26T11:15:09.760Z,5.73
2022-09-26T11:17:45.360Z,5.30
2022-09-26T11:20:46.252Z,4.47
2022-09-26T11:23:28.075Z,4.40
2022-09-26T11:25:59.534Z,7.73
2022-09-26T11:29:22.069Z,4.20
2022-09-26T11:31:48.837Z,5.43
2022-09-26T11:34:26.710Z,6.63
2022-09-26T11:37:08.520Z,11.87
2022-09-26T11:39:40.841Z,8.07
2022-09-26T11:42:22.386Z,4.50
2022-09-26T11:44:53.410Z,5.00
2022-09-26T11:47:53.415Z,4.37
2022-09-26T11:50:39.690Z,9.60
2022-09-26T11:53:21.588Z,2.37
2022-09-26T11:56:09.616Z,2.53
2022-09-26T11:59:03.492Z,7.87
2022-09-26T12:01:53.102Z,3.10
2022-09-26T12:04:55.490Z,3.27
2022-09-26T12:07:37.539Z,3.00
2022-09-26T12:10:26.372Z,6.40
2022-09-26T12:13:17.459Z,7.70
2022-09-26T12:15:55.065Z,1.80
2022-09-26T12:18:46.135Z,2.10
2022-09-26T12:21:38.707Z,2.00
2022-09-26T12:24:17.009Z,4.77
2022-09-26T12:27:11.131Z,16.80
2022-09-26T12:29:55.215Z,4.70
2022-09-26T12:32:27.407Z,6.80
2022-09-26T12:35:13.813Z,2.70
2022-09-26T12:37:57.582Z,2.03
2022-09-26T12:40:42.348Z,7.70
2022-09-26T12:43:26.436Z,2.83
2022-09-26T12:46:14.974Z,3.13
2022-09-26T12:49:01.974Z,3.50
2022-09-26T12:51:47.303Z,4.87
2022-09-26T12:54:28.527Z,3.80
2022-09-26T12:57:32.931Z,5.50
2022-09-26T13:00:09.679Z,4.97
2022-09-26T13:03:13.973Z,3.13
2022-09-26T13:06:19.564Z,4.70
2022-09-26T13:08:46.114Z,2.13
2022-09-26T13:11:12.751Z,1.87
2022-09-26T13:13:46.395Z,1.90
2022-09-26T13:16:16.170Z,2.47
2022-09-26T13:18:47.285Z,1.63
2022-09-26T13:21:19.394Z,9.90
2022-09-26T13:23:57.905Z,6.03
2022-09-26T13:26:33.555Z,4.40
2022-09-26T13:29:23.265Z,3.00
2022-09-26T13:31:55.489Z,5.90
2022-09-26T13:34:34.872Z,4.07
2022-09-26T13:37:04.366Z,5.07
2022-09-26T13:39:50.784Z,3.00
2022-09-26T13:42:37.358Z,6.43
2022-09-26T13:45:29.780Z,6.07
2022-09-26T13:48:10.127Z,6.33
2022-09-26T13:50:55.936Z,8.63
2022-09-26T13:53:46.226Z,4.73
2022-09-26T13:56:35.178Z,2.50
2022-09-26T13:59:19.924Z,2.30
2022-09-26T14:02:17.649Z,2.40
2022-09-26T14:04:45.974Z,5.27
2022-09-26T14:07:30.842Z,2.13
2022-09-26T14:10:29.291Z,2.20
2022-09-26T14:13:03.744Z,2.97
2022-09-26T14:15:57.987Z,2.00
2022-09-26T14:19:06.517Z,3.50
2022-09-26T14:21:33.515Z,1.63
2022-09-26T14:24:25.682Z,3.83
2022-09-26T14:27:10.287Z,1.70
2022-09-26T14:29:39.706Z,5.60
2022-09-26T14:32:10.370Z,2.03
2022-09-26T14:35:15.414Z,2.40
2022-09-26T14:37:44.402Z,2.57
2022-09-26T14:40:11.029Z,1.80
2022-09-26T14:42:43.717Z,2.80
2022-09-26T14:45:33.232Z,2.37
2022-09-26T14:51:25.189Z,2.90
2022-09-26T14:54:23.181Z,3.23
2022-09-26T14:57:05.720Z,7.00
2022-09-26T14:59:34.861Z,2.03
2022-09-26T15:02:13.556Z,3.83
2022-09-26T15:04:43.204Z,6.87
2022-09-26T15:07:27.295Z,6.30
2022-09-26T15:09:56.617Z,3.37
2022-09-26T15:12:37.331Z,2.67
2022-09-26T15:15:09.713Z,2.00
2022-09-26T15:17:45.505Z,4.10
2022-09-26T15:20:18.425Z,4.20
2022-09-26T15:22:47.276Z,3.10
2022-09-26T15:25:25.575Z,2.30
2022-09-26T15:27:54.662Z,3.00
2022-09-26T15:30:32.256Z,3.67
2022-09-26T15:33:03.233Z,6.13
2022-09-26T15:35:31.387Z,1.80
2022-09-26T15:38:03.843Z,3.93
2022-09-26T15:40:32.194Z,2.73
2022-09-26T15:43:20.708Z,2.03
2022-09-26T15:45:47.870Z,3.33
2022-09-26T15:48:20.558Z,1.93
2022-09-26T15:50:56.126Z,3.67
2022-09-26T15:53:28.711Z,1.60
2022-09-26T15:56:05.811Z,2.70
2022-09-26T15:59:07.609Z,3.27
2022-09-26T16:01:43.635Z,2.60
2022-09-26T16:04:33.350Z,4.03
2022-09-26T16:07:03.385Z,2.73
2022-09-26T16:09:40.233Z,1.87
2022-09-26T16:12:15.984Z,4.43
2022-09-26T16:14:49.274Z,2.83
2022-09-26T16:17:37.560Z,3.20
2022-09-26T16:20:10.250Z,4.73
2022-09-26T16:22:37.010Z,3.73
2022-09-26T16:25:15.861Z,2.40
2022-09-26T16:27:43.369Z,3.30
2022-09-26T16:30:28.295Z,5.13
2022-09-26T16:32:56.012Z,3.20
2022-09-26T16:35:29.474Z,7.23
2022-09-26T16:38:25.726Z,3.80
2022-09-26T16:41:06.238Z,3.43
2022-09-26T16:43:33.006Z,3.37
2022-09-26T16:46:14.627Z,17.93
2022-09-26T16:48:42.899Z,9.57
2022-09-26T16:51:58.268Z,14.17
2022-09-26T16:54:25.560Z,9.13
2022-09-26T16:56:52.188Z,2.57
2022-09-26T16:59:22.748Z,3.80
2022-09-26T17:01:55.410Z,3.73
2022-09-26T17:04:24.138Z,2.03
2022-09-26T17:06:51.240Z,3.17
2022-09-26T17:09:23.019Z,4.17
2022-09-26T17:11:53.340Z,2.17
2022-09-26T17:14:24.217Z,2.03
2022-09-26T17:17:00.652Z,3.70
2022-09-26T17:19:31.770Z,4.10
2022-09-26T17:21:59.429Z,2.60
2022-09-26T17:24:29.104Z,5.03
2022-09-26T17:26:59.506Z,5.50
2022-09-26T17:29:30.368Z,5.47
2022-09-26T17:31:59.075Z,1.90
2022-09-26T17:34:38.704Z,2.23
2022-09-26T17:37:05.440Z,2.87
2022-09-26T17:39:32.083Z,3.10
2022-09-26T17:41:59.119Z,2.50
2022-09-26T17:44:31.917Z,4.57
2022-09-26T17:46:59.153Z,2.30
2022-09-26T17:49:30.943Z,3.33
2022-09-26T17:52:00.633Z,4.47
2022-09-26T17:54:40.745Z,4.80
2022-09-26T17:57:14.295Z,4.37
2022-09-26T17:59:42.221Z,3.50
2022-09-26T18:02:34.963Z,4.73
2022-09-26T18:05:07.192Z,4.00
2022-09-26T18:07:38.213Z,3.23
2022-09-26T18:10:07.374Z,4.10
2022-09-26T18:12:35.000Z,3.10
2022-09-26T18:15:03.972Z,5.97
2022-09-26T18:17:31.102Z,5.63
2022-09-26T18:19:57.715Z,6.10
2022-09-26T18:22:32.551Z,3.57
2022-09-26T18:25:07.105Z,7.53
2022-09-26T18:27:40.527Z,5.00
2022-09-26T18:30:11.743Z,3.37
2022-09-26T18:32:41.704Z,10.40
2022-09-26T18:35:19.854Z,4.70
2022-09-26T18:37:46.606Z,3.53
2022-09-26T18:40:15.370Z,5.07
2022-09-26T18:42:46.074Z,5.37
2022-09-26T18:45:36.635Z,6.63
2022-09-26T18:48:08.200Z,5.37
2022-09-26T18:50:39.387Z,5.47
2022-09-26T18:53:20.965Z,10.20
2022-09-26T18:56:07.051Z,6.33
2022-09-26T18:58:34.447Z,5.50
2022-09-26T19:01:17.591Z,3.93
2022-09-26T19:03:46.935Z,5.53
2022-09-26T19:06:19.993Z,5.07
2022-09-26T19:08:49.732Z,5.50
2022-09-26T19:11:21.850Z,3.87
2022-09-26T19:13:51.474Z,3.80
2022-09-26T19:16:53.237Z,6.17
2022-09-26T19:19:19.906Z,6.03
2022-09-26T19:21:49.453Z,7.37
2022-09-26T19:24:27.970Z,7.47
2022-09-26T19:26:57.882Z,7.33
2022-09-26T19:29:36.951Z,9.27
2022-09-26T19:32:05.244Z,5.47
2022-09-26T19:34:33.040Z,5.00
2022-09-26T19:37:01.591Z,8.30
2022-09-26T19:39:28.290Z,5.10
2022-09-26T19:41:54.880Z,9.37
2022-09-26T19:44:21.562Z,5.47
2022-09-26T19:46:48.272Z,5.00
2022-09-26T19:49:18.131Z,9.03
2022-09-26T19:51:45.073Z,7.47
2022-09-26T19:54:17.059Z,5.70
2022-09-26T19:56:44.223Z,4.70
2022-09-26T19:59:12.873Z,5.97
2022-09-26T20:01:43.026Z,8.33
2022-09-26T20:04:19.172Z,6.23
2022-09-26T20:06:46.901Z,8.37
2022-09-26T20:09:16.735Z,5.33
2022-09-26T20:11:43.691Z,9.80
2022-09-26T20:14:25.494Z,9.57
2022-09-26T20:16:55.447Z,10.07
2022-09-26T20:19:32.261Z,9.60
2022-09-26T20:22:02.577Z,11.80
2022-09-26T20:24:31.671Z,5.53
2022-09-26T20:27:02.751Z,8.80
2022-09-26T20:29:29.505Z,10.80
2022-09-26T20:31:56.194Z,8.43
2022-09-26T20:34:22.887Z,8.43
2022-09-26T20:36:51.577Z,7.80
2022-09-26T20:39:26.381Z,9.07
2022-09-26T20:41:53.291Z,6.97
2022-09-26T20:44:28.823Z,7.17
2022-09-26T20:46:59.774Z,11.23
2022-09-26T20:49:30.284Z,7.03
2022-09-26T20:52:00.041Z,8.27
2022-09-26T20:54:32.183Z,9.40
2022-09-26T20:56:59.261Z,8.27
2022-09-26T20:59:26.685Z,8.13
2022-09-26T21:01:54.833Z,10.20
2022-09-26T21:04:29.981Z,9.00
2022-09-26T21:06:56.654Z,8.07
2022-09-26T21:09:23.330Z,10.63
2022-09-26T21:11:50.317Z,6.37
2022-09-26T21:14:18.285Z,7.23
2022-09-26T21:16:48.151Z,5.87
2022-09-26T21:19:24.246Z,9.43
2022-09-26T21:21:53.812Z,8.70
2022-09-26T21:24:30.972Z,7.03
2022-09-26T21:26:57.622Z,8.07
2022-09-26T21:29:24.260Z,7.93
2022-09-26T21:31:54.351Z,9.33
2022-09-26T21:34:23.679Z,10.87
2022-09-26T21:36:52.071Z,9.33
2022-09-26T21:39:19.146Z,7.63
2022-09-26T21:41:49.403Z,11.03
2022-09-26T21:44:19.117Z,9.67
2022-09-26T21:46:45.767Z,5.87
2022-09-26T21:49:12.576Z,6.57
2022-09-26T21:51:40.150Z,7.93
2022-09-26T21:54:17.702Z,7.10
2022-09-26T21:56:50.592Z,10.73
2022-09-26T21:59:22.621Z,8.17
2022-09-26T22:01:49.644Z,8.93
2022-09-26T22:04:16.763Z,10.97
2022-09-26T22:06:43.543Z,8.77
2022-09-26T22:09:10.936Z,9.00
2022-09-26T22:11:38.378Z,7.83
2022-09-26T22:14:05.641Z,8.00
2022-09-26T22:16:32.677Z,8.53
2022-09-26T22:18:59.673Z,9.67
2022-09-26T22:21:26.436Z,8.43
2022-09-26T22:23:53.165Z,10.40
2022-09-26T22:26:20.175Z,9.70
2022-09-26T22:28:46.805Z,9.23
2022-09-26T22:31:13.696Z,7.53
2022-09-26T22:33:40.988Z,8.67
2022-09-26T22:36:08.615Z,10.27
2022-09-26T22:38:36.889Z,11.93
2022-09-26T22:41:06.121Z,10.30
2022-09-26T22:43:36.311Z,9.83
2022-09-26T22:46:09.988Z,13.80
2022-09-26T22:48:41.883Z,14.67
2022-09-26T22:51:09.418Z,11.50
2022-09-26T22:53:37.885Z,11.80
2022-09-26T22:56:05.551Z,9.63
2022-09-26T22:58:39.226Z,12.00
2022-09-26T23:01:09.512Z,10.70
2022-09-26T23:03:37.037Z,11.33
2022-09-26T23:06:04.971Z,13.70
2022-09-26T23:08:32.784Z,11.70
2022-09-26T23:10:59.677Z,13.40
2022-09-26T23:13:27.332Z,12.53
2022-09-26T23:15:54.268Z,12.50
2022-09-26T23:18:21.710Z,11.20
2022-09-26T23:20:48.449Z,10.57
2022-09-26T23:23:15.166Z,11.63
2022-09-26T23:25:52.478Z,9.23
2022-09-26T23:28:19.100Z,10.83
2022-09-26T23:31:14.444Z,10.27
2022-09-26T23:33:41.224Z,13.33
2022-09-26T23:36:08.867Z,10.40
2022-09-26T23:38:37.670Z,13.53
2022-09-26T23:41:06.211Z,10.07
2022-09-26T23:43:33.431Z,12.77
2022-09-26T23:46:00.221Z,9.43
2022-09-26T23:48:27.117Z,11.10
2022-09-26T23:50:53.758Z,9.03
2022-09-26T23:53:20.543Z,9.90
2022-09-26T23:55:47.182Z,9.63
2022-09-26T23:58:14.117Z,10.97
